sensor_id;sensor_type;location;lat;lon;timestamp;temperature;humidity
51811;DHT22;52468;40.116;18.296;2024-03-08T00:00:12;8.30;80.30
51811;DHT22;52468;40.116;18.296;2024-03-08T00:02:41;8.30;80.30
51811;DHT22;52468;40.116;18.296;2024-03-08T00:05:09;8.20;80.30
51811;DHT22;52468;40.116;18.296;2024-03-08T00:07:41;8.20;80.20
51811;DHT22;52468;40.116;18.296;2024-03-08T00:10:11;8.20;80.30
51811;DHT22;52468;40.116;18.296;2024-03-08T00:12:40;8.10;80.30
51811;DHT22;52468;40.116;18.296;2024-03-08T00:15:16;8.10;80.20
51811;DHT22;52468;40.116;18.296;2024-03-08T00:17:45;8.10;80.30
51811;DHT22;52468;40.116;18.296;2024-03-08T00:20:14;8.10;80.30
51811;DHT22;52468;40.116;18.296;2024-03-08T00:22:42;8.00;80.30
51811;DHT22;52468;40.116;18.296;2024-03-08T00:25:11;8.00;80.40
51811;DHT22;52468;40.116;18.296;2024-03-08T00:27:43;8.00;80.50
51811;DHT22;52468;40.116;18.296;2024-03-08T00:30:11;7.90;80.70
51811;DHT22;52468;40.116;18.296;2024-03-08T00:32:40;7.90;80.90
51811;DHT22;52468;40.116;18.296;2024-03-08T00:35:08;7.90;81.10
51811;DHT22;52468;40.116;18.296;2024-03-08T00:37:36;7.90;81.30
51811;DHT22;52468;40.116;18.296;2024-03-08T00:40:05;8.00;81.00
51811;DHT22;52468;40.116;18.296;2024-03-08T00:42:35;8.00;81.00
51811;DHT22;52468;40.116;18.296;2024-03-08T00:45:03;8.00;80.80
51811;DHT22;52468;40.116;18.296;2024-03-08T00:47:31;8.00;80.90
51811;DHT22;52468;40.116;18.296;2024-03-08T00:49:59;8.00;80.90
51811;DHT22;52468;40.116;18.296;2024-03-08T00:52:27;8.00;80.90
51811;DHT22;52468;40.116;18.296;2024-03-08T00:54:55;7.90;80.90
51811;DHT22;52468;40.116;18.296;2024-03-08T00:57:23;8.00;80.90
51811;DHT22;52468;40.116;18.296;2024-03-08T00:59:50;7.90;80.80
51811;DHT22;52468;40.116;18.296;2024-03-08T01:02:20;8.00;80.80
51811;DHT22;52468;40.116;18.296;2024-03-08T01:04:49;8.00;81.10
51811;DHT22;52468;40.116;18.296;2024-03-08T01:07:17;8.00;81.20
51811;DHT22;52468;40.116;18.296;2024-03-08T01:09:45;8.10;81.10
51811;DHT22;52468;40.116;18.296;2024-03-08T01:12:13;8.10;81.00
51811;DHT22;52468;40.116;18.296;2024-03-08T01:14:42;8.10;80.90
51811;DHT22;52468;40.116;18.296;2024-03-08T01:17:10;8.10;81.00
51811;DHT22;52468;40.116;18.296;2024-03-08T01:19:38;8.10;81.10
51811;DHT22;52468;40.116;18.296;2024-03-08T01:22:06;8.10;81.10
51811;DHT22;52468;40.116;18.296;2024-03-08T01:24:35;8.10;81.10
51811;DHT22;52468;40.116;18.296;2024-03-08T01:27:03;8.20;81.20
51811;DHT22;52468;40.116;18.296;2024-03-08T01:29:31;8.20;81.30
51811;DHT22;52468;40.116;18.296;2024-03-08T01:31:59;8.10;81.30
51811;DHT22;52468;40.116;18.296;2024-03-08T01:34:29;8.20;81.30
51811;DHT22;52468;40.116;18.296;2024-03-08T01:36:57;8.20;81.30
51811;DHT22;52468;40.116;18.296;2024-03-08T01:39:25;8.10;81.20
51811;DHT22;52468;40.116;18.296;2024-03-08T01:41:54;8.20;81.00
51811;DHT22;52468;40.116;18.296;2024-03-08T01:44:22;8.20;81.00
51811;DHT22;52468;40.116;18.296;2024-03-08T01:46:51;8.10;80.90
51811;DHT22;52468;40.116;18.296;2024-03-08T01:49:21;8.10;80.90
51811;DHT22;52468;40.116;18.296;2024-03-08T01:51:50;8.10;80.90
51811;DHT22;52468;40.116;18.296;2024-03-08T01:54:19;8.00;81.00
51811;DHT22;52468;40.116;18.296;2024-03-08T01:56:47;8.00;81.30
51811;DHT22;52468;40.116;18.296;2024-03-08T01:59:16;8.00;81.40
51811;DHT22;52468;40.116;18.296;2024-03-08T02:01:45;8.00;81.30
51811;DHT22;52468;40.116;18.296;2024-03-08T02:04:13;8.00;81.20
51811;DHT22;52468;40.116;18.296;2024-03-08T02:06:41;8.00;81.00
51811;DHT22;52468;40.116;18.296;2024-03-08T02:09:09;8.00;81.00
51811;DHT22;52468;40.116;18.296;2024-03-08T02:11:38;8.00;81.00
51811;DHT22;52468;40.116;18.296;2024-03-08T02:14:08;7.90;81.00
51811;DHT22;52468;40.116;18.296;2024-03-08T02:16:35;7.80;81.10
51811;DHT22;52468;40.116;18.296;2024-03-08T02:19:03;7.80;81.20
51811;DHT22;52468;40.116;18.296;2024-03-08T02:21:31;7.80;81.20
51811;DHT22;52468;40.116;18.296;2024-03-08T02:23:59;7.80;81.20
51811;DHT22;52468;40.116;18.296;2024-03-08T02:26:27;7.90;81.30
51811;DHT22;52468;40.116;18.296;2024-03-08T02:28:55;7.80;81.20
51811;DHT22;52468;40.116;18.296;2024-03-08T02:31:23;7.80;81.20
51811;DHT22;52468;40.116;18.296;2024-03-08T02:33:51;7.80;81.20
51811;DHT22;52468;40.116;18.296;2024-03-08T02:36:19;7.80;81.10
51811;DHT22;52468;40.116;18.296;2024-03-08T02:38:47;7.80;80.90
51811;DHT22;52468;40.116;18.296;2024-03-08T02:41:15;7.70;80.80
51811;DHT22;52468;40.116;18.296;2024-03-08T02:43:43;7.60;80.90
51811;DHT22;52468;40.116;18.296;2024-03-08T02:46:11;7.60;81.00
51811;DHT22;52468;40.116;18.296;2024-03-08T02:48:39;7.50;80.90
51811;DHT22;52468;40.116;18.296;2024-03-08T02:51:07;7.50;80.90
51811;DHT22;52468;40.116;18.296;2024-03-08T02:53:36;7.40;81.00
51811;DHT22;52468;40.116;18.296;2024-03-08T02:56:04;7.40;81.10
51811;DHT22;52468;40.116;18.296;2024-03-08T02:58:32;7.40;80.90
51811;DHT22;52468;40.116;18.296;2024-03-08T03:01:00;7.40;81.20
51811;DHT22;52468;40.116;18.296;2024-03-08T03:03:28;7.50;81.20
51811;DHT22;52468;40.116;18.296;2024-03-08T03:05:55;7.40;81.00
51811;DHT22;52468;40.116;18.296;2024-03-08T03:08:23;7.40;80.90
51811;DHT22;52468;40.116;18.296;2024-03-08T03:10:51;7.40;80.90
51811;DHT22;52468;40.116;18.296;2024-03-08T03:13:19;7.40;80.80
51811;DHT22;52468;40.116;18.296;2024-03-08T03:15:47;7.30;80.80
51811;DHT22;52468;40.116;18.296;2024-03-08T03:18:14;7.30;80.80
51811;DHT22;52468;40.116;18.296;2024-03-08T03:20:43;7.30;80.70
51811;DHT22;52468;40.116;18.296;2024-03-08T03:23:11;7.30;80.70
51811;DHT22;52468;40.116;18.296;2024-03-08T03:25:42;7.20;80.80
51811;DHT22;52468;40.116;18.296;2024-03-08T03:28:10;7.20;80.90
51811;DHT22;52468;40.116;18.296;2024-03-08T03:30:42;7.20;81.30
51811;DHT22;52468;40.116;18.296;2024-03-08T03:33:09;7.20;81.60
51811;DHT22;52468;40.116;18.296;2024-03-08T03:35:40;7.20;81.80
51811;DHT22;52468;40.116;18.296;2024-03-08T03:38:09;7.30;81.90
51811;DHT22;52468;40.116;18.296;2024-03-08T03:40:38;7.40;82.00
51811;DHT22;52468;40.116;18.296;2024-03-08T03:43:06;7.40;81.90
51811;DHT22;52468;40.116;18.296;2024-03-08T03:45:34;7.50;81.80
51811;DHT22;52468;40.116;18.296;2024-03-08T03:48:06;7.50;81.40
51811;DHT22;52468;40.116;18.296;2024-03-08T03:50:37;7.50;81.30
51811;DHT22;52468;40.116;18.296;2024-03-08T03:53:05;7.50;81.20
51811;DHT22;52468;40.116;18.296;2024-03-08T03:55:36;7.50;81.20
51811;DHT22;52468;40.116;18.296;2024-03-08T03:58:07;7.50;81.50
51811;DHT22;52468;40.116;18.296;2024-03-08T04:00:34;7.60;81.70
51811;DHT22;52468;40.116;18.296;2024-03-08T04:03:02;7.50;81.80
51811;DHT22;52468;40.116;18.296;2024-03-08T04:05:30;7.50;81.70
51811;DHT22;52468;40.116;18.296;2024-03-08T04:07:59;7.60;81.50
51811;DHT22;52468;40.116;18.296;2024-03-08T04:10:27;7.50;81.40
51811;DHT22;52468;40.116;18.296;2024-03-08T04:12:55;7.50;81.30
51811;DHT22;52468;40.116;18.296;2024-03-08T04:15:24;7.40;81.30
51811;DHT22;52468;40.116;18.296;2024-03-08T04:17:52;7.40;81.50
51811;DHT22;52468;40.116;18.296;2024-03-08T04:20:20;7.40;81.50
51811;DHT22;52468;40.116;18.296;2024-03-08T04:22:48;7.30;81.60
51811;DHT22;52468;40.116;18.296;2024-03-08T04:25:17;7.30;81.70
51811;DHT22;52468;40.116;18.296;2024-03-08T04:27:45;7.30;81.90
51811;DHT22;52468;40.116;18.296;2024-03-08T04:30:14;7.20;81.90
51811;DHT22;52468;40.116;18.296;2024-03-08T04:32:42;7.20;81.80
51811;DHT22;52468;40.116;18.296;2024-03-08T04:35:10;7.20;81.90
51811;DHT22;52468;40.116;18.296;2024-03-08T04:37:40;7.20;81.90
51811;DHT22;52468;40.116;18.296;2024-03-08T04:40:08;7.20;82.00
51811;DHT22;52468;40.116;18.296;2024-03-08T04:42:37;7.20;82.00
51811;DHT22;52468;40.116;18.296;2024-03-08T04:45:06;7.20;82.10
51811;DHT22;52468;40.116;18.296;2024-03-08T04:47:38;7.20;82.00
51811;DHT22;52468;40.116;18.296;2024-03-08T04:50:06;7.20;82.20
51811;DHT22;52468;40.116;18.296;2024-03-08T04:52:36;7.20;82.30
51811;DHT22;52468;40.116;18.296;2024-03-08T04:55:04;7.20;82.30
51811;DHT22;52468;40.116;18.296;2024-03-08T04:57:33;7.20;82.20
51811;DHT22;52468;40.116;18.296;2024-03-08T05:00:02;7.20;82.30
51811;DHT22;52468;40.116;18.296;2024-03-08T05:02:32;7.20;82.40
51811;DHT22;52468;40.116;18.296;2024-03-08T05:04:59;7.30;82.50
51811;DHT22;52468;40.116;18.296;2024-03-08T05:07:28;7.30;82.50
51811;DHT22;52468;40.116;18.296;2024-03-08T05:09:56;7.40;82.70
51811;DHT22;52468;40.116;18.296;2024-03-08T05:12:24;7.50;82.80
51811;DHT22;52468;40.116;18.296;2024-03-08T05:14:52;7.50;82.70
51811;DHT22;52468;40.116;18.296;2024-03-08T05:17:20;7.50;82.60
51811;DHT22;52468;40.116;18.296;2024-03-08T05:19:47;7.50;82.50
51811;DHT22;52468;40.116;18.296;2024-03-08T05:22:15;7.60;82.50
51811;DHT22;52468;40.116;18.296;2024-03-08T05:24:43;7.60;82.60
51811;DHT22;52468;40.116;18.296;2024-03-08T05:27:11;7.70;82.80
51811;DHT22;52468;40.116;18.296;2024-03-08T05:29:40;7.90;82.70
51811;DHT22;52468;40.116;18.296;2024-03-08T05:32:08;7.90;82.70
51811;DHT22;52468;40.116;18.296;2024-03-08T05:34:37;8.00;82.90
51811;DHT22;52468;40.116;18.296;2024-03-08T05:37:06;8.10;82.90
51811;DHT22;52468;40.116;18.296;2024-03-08T05:39:34;8.30;82.80
51811;DHT22;52468;40.116;18.296;2024-03-08T05:42:02;8.50;82.40
51811;DHT22;52468;40.116;18.296;2024-03-08T05:44:30;8.50;82.10
51811;DHT22;52468;40.116;18.296;2024-03-08T05:46:58;8.60;81.60
51811;DHT22;52468;40.116;18.296;2024-03-08T05:49:26;8.70;81.50
51811;DHT22;52468;40.116;18.296;2024-03-08T05:51:54;8.80;81.40
51811;DHT22;52468;40.116;18.296;2024-03-08T05:54:22;9.00;81.40
51811;DHT22;52468;40.116;18.296;2024-03-08T05:56:52;9.10;81.10
51811;DHT22;52468;40.116;18.296;2024-03-08T05:59:20;9.30;80.90
51811;DHT22;52468;40.116;18.296;2024-03-08T06:01:51;9.40;80.60
51811;DHT22;52468;40.116;18.296;2024-03-08T06:04:19;9.50;80.70
51811;DHT22;52468;40.116;18.296;2024-03-08T06:06:47;9.60;80.40
51811;DHT22;52468;40.116;18.296;2024-03-08T06:09:16;9.60;80.50
51811;DHT22;52468;40.116;18.296;2024-03-08T06:11:45;9.80;80.50
51811;DHT22;52468;40.116;18.296;2024-03-08T06:14:12;9.90;80.50
51811;DHT22;52468;40.116;18.296;2024-03-08T06:16:40;10.00;80.70
51811;DHT22;52468;40.116;18.296;2024-03-08T06:19:08;10.20;80.60
51811;DHT22;52468;40.116;18.296;2024-03-08T06:21:36;10.30;80.90
51811;DHT22;52468;40.116;18.296;2024-03-08T06:24:04;10.60;80.80
51811;DHT22;52468;40.116;18.296;2024-03-08T06:26:32;10.80;80.80
51811;DHT22;52468;40.116;18.296;2024-03-08T06:29:00;11.00;80.50
51811;DHT22;52468;40.116;18.296;2024-03-08T06:31:28;11.10;80.10
51811;DHT22;52468;40.116;18.296;2024-03-08T06:33:55;11.30;80.10
51811;DHT22;52468;40.116;18.296;2024-03-08T06:36:23;11.40;80.00
51811;DHT22;52468;40.116;18.296;2024-03-08T06:38:51;11.50;79.40
51811;DHT22;52468;40.116;18.296;2024-03-08T06:41:19;11.50;79.70
51811;DHT22;52468;40.116;18.296;2024-03-08T06:43:47;11.60;79.70
51811;DHT22;52468;40.116;18.296;2024-03-08T06:46:19;11.60;79.30
51811;DHT22;52468;40.116;18.296;2024-03-08T06:48:48;11.80;79.50
51811;DHT22;52468;40.116;18.296;2024-03-08T06:51:17;12.00;79.50
51811;DHT22;52468;40.116;18.296;2024-03-08T06:53:45;12.10;79.60
51811;DHT22;52468;40.116;18.296;2024-03-08T06:56:13;12.30;79.90
51811;DHT22;52468;40.116;18.296;2024-03-08T06:58:41;12.40;78.40
51811;DHT22;52468;40.116;18.296;2024-03-08T07:01:09;12.50;77.80
51811;DHT22;52468;40.116;18.296;2024-03-08T07:03:42;12.60;78.80
51811;DHT22;52468;40.116;18.296;2024-03-08T07:06:11;12.70;77.60
51811;DHT22;52468;40.116;18.296;2024-03-08T07:08:39;12.70;77.50
51811;DHT22;52468;40.116;18.296;2024-03-08T07:11:07;13.00;79.30
51811;DHT22;52468;40.116;18.296;2024-03-08T07:13:35;13.10;77.40
51811;DHT22;52468;40.116;18.296;2024-03-08T07:16:03;13.20;78.30
51811;DHT22;52468;40.116;18.296;2024-03-08T07:18:31;13.30;78.60
51811;DHT22;52468;40.116;18.296;2024-03-08T07:20:59;13.50;78.10
51811;DHT22;52468;40.116;18.296;2024-03-08T07:23:27;13.50;76.80
51811;DHT22;52468;40.116;18.296;2024-03-08T07:26:16;13.70;78.60
51811;DHT22;52468;40.116;18.296;2024-03-08T07:28:44;13.90;76.80
51811;DHT22;52468;40.116;18.296;2024-03-08T07:31:12;14.00;77.40
51811;DHT22;52468;40.116;18.296;2024-03-08T07:33:40;14.10;77.00
51811;DHT22;52468;40.116;18.296;2024-03-08T07:36:07;14.10;75.90
51811;DHT22;52468;40.116;18.296;2024-03-08T07:38:36;14.20;77.30
51811;DHT22;52468;40.116;18.296;2024-03-08T07:41:05;14.30;77.10
51811;DHT22;52468;40.116;18.296;2024-03-08T07:43:33;14.50;77.30
51811;DHT22;52468;40.116;18.296;2024-03-08T07:46:01;14.60;76.60
51811;DHT22;52468;40.116;18.296;2024-03-08T07:48:28;14.60;74.90
51811;DHT22;52468;40.116;18.296;2024-03-08T07:50:58;14.60;75.90
51811;DHT22;52468;40.116;18.296;2024-03-08T07:53:26;14.90;75.90
51811;DHT22;52468;40.116;18.296;2024-03-08T07:55:54;14.90;76.00
51811;DHT22;52468;40.116;18.296;2024-03-08T07:58:22;14.80;74.50
51811;DHT22;52468;40.116;18.296;2024-03-08T08:00:51;15.00;74.60
51811;DHT22;52468;40.116;18.296;2024-03-08T08:03:19;15.00;74.60
51811;DHT22;52468;40.116;18.296;2024-03-08T08:05:48;15.00;73.10
51811;DHT22;52468;40.116;18.296;2024-03-08T08:08:16;15.10;73.40
51811;DHT22;52468;40.116;18.296;2024-03-08T08:10:44;15.20;73.30
51811;DHT22;52468;40.116;18.296;2024-03-08T08:13:12;15.10;69.80
51811;DHT22;52468;40.116;18.296;2024-03-08T08:15:40;15.20;71.30
51811;DHT22;52468;40.116;18.296;2024-03-08T08:18:08;15.30;70.70
51811;DHT22;52468;40.116;18.296;2024-03-08T08:20:37;15.50;71.20
51811;DHT22;52468;40.116;18.296;2024-03-08T08:23:05;15.50;69.90
51811;DHT22;52468;40.116;18.296;2024-03-08T08:25:33;15.50;71.50
51811;DHT22;52468;40.116;18.296;2024-03-08T08:28:02;15.60;70.30
51811;DHT22;52468;40.116;18.296;2024-03-08T08:30:31;15.60;68.70
51811;DHT22;52468;40.116;18.296;2024-03-08T08:33:00;15.80;69.20
51811;DHT22;52468;40.116;18.296;2024-03-08T08:35:28;15.80;69.50
51811;DHT22;52468;40.116;18.296;2024-03-08T08:37:56;16.00;70.90
51811;DHT22;52468;40.116;18.296;2024-03-08T08:40:26;16.00;66.20
51811;DHT22;52468;40.116;18.296;2024-03-08T08:42:55;16.00;65.80
51811;DHT22;52468;40.116;18.296;2024-03-08T08:45:25;16.00;66.70
51811;DHT22;52468;40.116;18.296;2024-03-08T08:47:53;16.20;67.20
51811;DHT22;52468;40.116;18.296;2024-03-08T08:50:22;16.40;66.00
51811;DHT22;52468;40.116;18.296;2024-03-08T08:52:51;16.50;66.80
51811;DHT22;52468;40.116;18.296;2024-03-08T08:55:19;16.50;65.90
51811;DHT22;52468;40.116;18.296;2024-03-08T08:57:53;16.50;61.90
51811;DHT22;52468;40.116;18.296;2024-03-08T09:00:21;16.50;64.70
51811;DHT22;52468;40.116;18.296;2024-03-08T09:02:51;16.50;64.30
51811;DHT22;52468;40.116;18.296;2024-03-08T09:05:19;16.60;62.50
51811;DHT22;52468;40.116;18.296;2024-03-08T09:07:49;16.40;61.70
51811;DHT22;52468;40.116;18.296;2024-03-08T09:10:17;16.50;61.80
51811;DHT22;52468;40.116;18.296;2024-03-08T09:12:46;16.50;62.50
51811;DHT22;52468;40.116;18.296;2024-03-08T09:15:15;16.50;61.70
51811;DHT22;52468;40.116;18.296;2024-03-08T09:17:45;16.60;58.30
51811;DHT22;52468;40.116;18.296;2024-03-08T09:20:13;16.60;60.00
51811;DHT22;52468;40.116;18.296;2024-03-08T09:22:45;17.00;61.50
51811;DHT22;52468;40.116;18.296;2024-03-08T09:25:13;17.00;57.50
51811;DHT22;52468;40.116;18.296;2024-03-08T09:27:41;17.00;58.10
51811;DHT22;52468;40.116;18.296;2024-03-08T09:30:09;17.00;57.00
51811;DHT22;52468;40.116;18.296;2024-03-08T09:32:41;17.00;56.20
51811;DHT22;52468;40.116;18.296;2024-03-08T09:35:09;17.10;55.40
51811;DHT22;52468;40.116;18.296;2024-03-08T09:37:38;17.50;57.70
51811;DHT22;52468;40.116;18.296;2024-03-08T09:40:07;17.60;53.00
51811;DHT22;52468;40.116;18.296;2024-03-08T09:42:38;17.50;52.30
51811;DHT22;52468;40.116;18.296;2024-03-08T09:45:10;17.60;53.80
51811;DHT22;52468;40.116;18.296;2024-03-08T09:47:42;17.60;52.30
51811;DHT22;52468;40.116;18.296;2024-03-08T09:50:11;17.60;51.70
51811;DHT22;52468;40.116;18.296;2024-03-08T09:52:41;17.70;52.20
51811;DHT22;52468;40.116;18.296;2024-03-08T09:55:11;18.00;53.80
51811;DHT22;52468;40.116;18.296;2024-03-08T09:57:43;18.20;51.50
51811;DHT22;52468;40.116;18.296;2024-03-08T10:00:31;18.30;49.70
51811;DHT22;52468;40.116;18.296;2024-03-08T10:03:02;18.00;48.80
51811;DHT22;52468;40.116;18.296;2024-03-08T10:05:31;17.90;49.30
51811;DHT22;52468;40.116;18.296;2024-03-08T10:08:00;17.80;48.50
51811;DHT22;52468;40.116;18.296;2024-03-08T10:10:41;17.60;48.40
51811;DHT22;52468;40.116;18.296;2024-03-08T10:13:10;17.50;48.40
51811;DHT22;52468;40.116;18.296;2024-03-08T10:15:42;17.50;48.50
51811;DHT22;52468;40.116;18.296;2024-03-08T10:18:11;17.90;49.10
51811;DHT22;52468;40.116;18.296;2024-03-08T10:20:42;18.40;47.20
51811;DHT22;52468;40.116;18.296;2024-03-08T10:23:16;18.40;46.00
51811;DHT22;52468;40.116;18.296;2024-03-08T10:25:59;18.20;45.80
51811;DHT22;52468;40.116;18.296;2024-03-08T10:28:39;18.10;46.30
51811;DHT22;52468;40.116;18.296;2024-03-08T10:31:12;18.10;46.80
51811;DHT22;52468;40.116;18.296;2024-03-08T10:33:48;18.20;47.00
51811;DHT22;52468;40.116;18.296;2024-03-08T10:36:23;18.40;46.80
51811;DHT22;52468;40.116;18.296;2024-03-08T10:38:53;18.40;45.50
51811;DHT22;52468;40.116;18.296;2024-03-08T10:41:40;18.30;45.80
51811;DHT22;52468;40.116;18.296;2024-03-08T10:47:15;18.50;46.00
51811;DHT22;52468;40.116;18.296;2024-03-08T10:50:18;18.70;46.30
51811;DHT22;52468;40.116;18.296;2024-03-08T10:52:56;19.30;45.40
51811;DHT22;52468;40.116;18.296;2024-03-08T10:55:28;20.00;44.10
51811;DHT22;52468;40.116;18.296;2024-03-08T10:58:02;20.50;41.30
51811;DHT22;52468;40.116;18.296;2024-03-08T11:00:40;21.10;40.80
51811;DHT22;52468;40.116;18.296;2024-03-08T11:09:35;21.10;40.10
51811;DHT22;52468;40.116;18.296;2024-03-08T11:12:22;21.20;40.60
51811;DHT22;52468;40.116;18.296;2024-03-08T11:14:58;21.40;39.50
51811;DHT22;52468;40.116;18.296;2024-03-08T11:20:01;20.80;39.70
51811;DHT22;52468;40.116;18.296;2024-03-08T11:22:38;20.70;39.40
51811;DHT22;52468;40.116;18.296;2024-03-08T11:25:38;20.60;40.30
51811;DHT22;52468;40.116;18.296;2024-03-08T11:28:20;20.80;39.70
51811;DHT22;52468;40.116;18.296;2024-03-08T11:33:34;20.10;40.60
51811;DHT22;52468;40.116;18.296;2024-03-08T11:36:30;20.00;40.70
51811;DHT22;52468;40.116;18.296;2024-03-08T11:39:04;19.90;41.70
51811;DHT22;52468;40.116;18.296;2024-03-08T11:41:44;20.00;42.60
51811;DHT22;52468;40.116;18.296;2024-03-08T11:44:20;20.00;43.50
51811;DHT22;52468;40.116;18.296;2024-03-08T11:47:04;19.90;44.50
51811;DHT22;52468;40.116;18.296;2024-03-08T11:49:35;19.80;45.20
51811;DHT22;52468;40.116;18.296;2024-03-08T11:52:03;19.80;45.60
51811;DHT22;52468;40.116;18.296;2024-03-08T11:54:37;19.60;45.90
51811;DHT22;52468;40.116;18.296;2024-03-08T11:57:07;19.50;46.10
51811;DHT22;52468;40.116;18.296;2024-03-08T11:59:37;19.50;46.60
51811;DHT22;52468;40.116;18.296;2024-03-08T12:02:12;19.50;46.60
51811;DHT22;52468;40.116;18.296;2024-03-08T12:04:40;19.50;47.10
51811;DHT22;52468;40.116;18.296;2024-03-08T12:07:10;19.60;46.80
51811;DHT22;52468;40.116;18.296;2024-03-08T12:10:18;19.60;46.70
51811;DHT22;52468;40.116;18.296;2024-03-08T12:12:54;19.40;47.30
51811;DHT22;52468;40.116;18.296;2024-03-08T12:15:24;19.40;47.00
51811;DHT22;52468;40.116;18.296;2024-03-08T12:18:03;19.30;47.50
51811;DHT22;52468;40.116;18.296;2024-03-08T12:20:45;19.20;47.60
51811;DHT22;52468;40.116;18.296;2024-03-08T12:23:20;19.20;47.60
51811;DHT22;52468;40.116;18.296;2024-03-08T12:25:50;19.30;47.50
51811;DHT22;52468;40.116;18.296;2024-03-08T12:28:21;19.60;46.60
51811;DHT22;52468;40.116;18.296;2024-03-08T12:30:52;19.60;46.00
51811;DHT22;52468;40.116;18.296;2024-03-08T12:33:26;19.50;46.30
51811;DHT22;52468;40.116;18.296;2024-03-08T12:35:55;19.50;46.90
51811;DHT22;52468;40.116;18.296;2024-03-08T12:38:28;19.50;46.80
51811;DHT22;52468;40.116;18.296;2024-03-08T12:40:59;19.50;46.80
51811;DHT22;52468;40.116;18.296;2024-03-08T12:43:28;19.60;47.20
51811;DHT22;52468;40.116;18.296;2024-03-08T12:46:02;19.50;47.50
51811;DHT22;52468;40.116;18.296;2024-03-08T12:48:36;19.40;47.80
51811;DHT22;52468;40.116;18.296;2024-03-08T12:51:14;19.20;47.70
51811;DHT22;52468;40.116;18.296;2024-03-08T12:53:46;19.00;48.40
51811;DHT22;52468;40.116;18.296;2024-03-08T12:56:29;19.10;48.10
51811;DHT22;52468;40.116;18.296;2024-03-08T12:59:00;19.10;47.80
51811;DHT22;52468;40.116;18.296;2024-03-08T13:01:34;19.10;47.60
51811;DHT22;52468;40.116;18.296;2024-03-08T13:04:07;19.20;47.60
51811;DHT22;52468;40.116;18.296;2024-03-08T13:06:44;19.30;47.90
51811;DHT22;52468;40.116;18.296;2024-03-08T13:09:28;19.40;47.80
51811;DHT22;52468;40.116;18.296;2024-03-08T13:12:04;19.50;48.20
51811;DHT22;52468;40.116;18.296;2024-03-08T13:14:34;19.80;48.00
51811;DHT22;52468;40.116;18.296;2024-03-08T13:17:05;20.00;47.40
51811;DHT22;52468;40.116;18.296;2024-03-08T13:19:41;20.30;46.90
51811;DHT22;52468;40.116;18.296;2024-03-08T13:22:21;20.30;46.40
51811;DHT22;52468;40.116;18.296;2024-03-08T13:24:51;20.50;46.00
51811;DHT22;52468;40.116;18.296;2024-03-08T13:27:28;20.70;45.10
51811;DHT22;52468;40.116;18.296;2024-03-08T13:29:58;20.50;45.50
51811;DHT22;52468;40.116;18.296;2024-03-08T13:32:30;20.50;45.70
51811;DHT22;52468;40.116;18.296;2024-03-08T13:35:00;20.50;45.80
51811;DHT22;52468;40.116;18.296;2024-03-08T13:37:30;20.50;46.00
51811;DHT22;52468;40.116;18.296;2024-03-08T13:40:00;20.50;45.90
51811;DHT22;52468;40.116;18.296;2024-03-08T13:42:30;20.60;44.70
51811;DHT22;52468;40.116;18.296;2024-03-08T13:45:03;20.70;43.90
51811;DHT22;52468;40.116;18.296;2024-03-08T13:47:32;20.90;42.60
51811;DHT22;52468;40.116;18.296;2024-03-08T13:50:05;20.90;41.90
51811;DHT22;52468;40.116;18.296;2024-03-08T13:52:40;21.20;40.40
51811;DHT22;52468;40.116;18.296;2024-03-08T13:55:10;21.60;39.10
51811;DHT22;52468;40.116;18.296;2024-03-08T14:00:18;22.10;36.90
51811;DHT22;52468;40.116;18.296;2024-03-08T14:02:52;21.90;36.70
51811;DHT22;52468;40.116;18.296;2024-03-08T14:05:23;21.60;37.20
51811;DHT22;52468;40.116;18.296;2024-03-08T14:07:51;21.60;37.40
51811;DHT22;52468;40.116;18.296;2024-03-08T14:10:24;21.60;36.10
51811;DHT22;52468;40.116;18.296;2024-03-08T14:12:53;21.10;34.50
51811;DHT22;52468;40.116;18.296;2024-03-08T14:15:26;20.70;35.80
51811;DHT22;52468;40.116;18.296;2024-03-08T14:17:55;20.50;37.60
51811;DHT22;52468;40.116;18.296;2024-03-08T14:20:30;20.50;38.70
51811;DHT22;52468;40.116;18.296;2024-03-08T14:23:01;20.50;39.60
51811;DHT22;52468;40.116;18.296;2024-03-08T14:25:34;20.50;40.00
51811;DHT22;52468;40.116;18.296;2024-03-08T14:28:03;20.50;38.20
51811;DHT22;52468;40.116;18.296;2024-03-08T14:30:34;20.30;38.70
51811;DHT22;52468;40.116;18.296;2024-03-08T14:33:07;20.30;38.50
51811;DHT22;52468;40.116;18.296;2024-03-08T14:35:57;20.50;38.70
51811;DHT22;52468;40.116;18.296;2024-03-08T14:38:25;21.00;38.40
51811;DHT22;52468;40.116;18.296;2024-03-08T14:40:57;21.20;37.20
51811;DHT22;52468;40.116;18.296;2024-03-08T14:43:29;21.80;37.00
51811;DHT22;52468;40.116;18.296;2024-03-08T14:46:11;22.50;35.10
51811;DHT22;52468;40.116;18.296;2024-03-08T14:48:47;23.20;33.80
51811;DHT22;52468;40.116;18.296;2024-03-08T14:53:50;26.00;29.70
51811;DHT22;52468;40.116;18.296;2024-03-08T14:56:24;26.80;29.00
51811;DHT22;52468;40.116;18.296;2024-03-08T15:01:38;27.50;27.00
51811;DHT22;52468;40.116;18.296;2024-03-08T15:04:06;27.90;27.00
51811;DHT22;52468;40.116;18.296;2024-03-08T15:09:24;29.00;25.70
51811;DHT22;52468;40.116;18.296;2024-03-08T15:11:55;29.10;25.80
51811;DHT22;52468;40.116;18.296;2024-03-08T15:14:26;29.10;26.20
51811;DHT22;52468;40.116;18.296;2024-03-08T15:16:54;29.00;26.30
51811;DHT22;52468;40.116;18.296;2024-03-08T15:19:25;28.60;26.30
51811;DHT22;52468;40.116;18.296;2024-03-08T15:22:02;28.20;27.20
51811;DHT22;52468;40.116;18.296;2024-03-08T15:24:32;26.90;28.80
51811;DHT22;52468;40.116;18.296;2024-03-08T15:27:00;25.90;30.70
51811;DHT22;52468;40.116;18.296;2024-03-08T15:29:31;25.20;31.80
51811;DHT22;52468;40.116;18.296;2024-03-08T15:32:12;24.80;32.40
51811;DHT22;52468;40.116;18.296;2024-03-08T15:34:49;23.50;34.20
51811;DHT22;52468;40.116;18.296;2024-03-08T15:37:17;21.90;36.60
51811;DHT22;52468;40.116;18.296;2024-03-08T15:39:45;20.50;38.90
51811;DHT22;52468;40.116;18.296;2024-03-08T15:42:16;19.50;41.20
51811;DHT22;52468;40.116;18.296;2024-03-08T15:44:47;18.60;43.20
51811;DHT22;52468;40.116;18.296;2024-03-08T15:47:18;17.90;44.80
51811;DHT22;52468;40.116;18.296;2024-03-08T15:52:20;17.10;47.80
51811;DHT22;52468;40.116;18.296;2024-03-08T15:54:57;16.80;49.00
51811;DHT22;52468;40.116;18.296;2024-03-08T15:57:28;16.50;49.90
51811;DHT22;52468;40.116;18.296;2024-03-08T15:59:59;16.30;50.70
51811;DHT22;52468;40.116;18.296;2024-03-08T16:02:30;16.10;51.50
51811;DHT22;52468;40.116;18.296;2024-03-08T16:04:58;16.00;52.20
51811;DHT22;52468;40.116;18.296;2024-03-08T16:07:35;15.90;52.50
51811;DHT22;52468;40.116;18.296;2024-03-08T16:10:12;15.70;53.00